Time,TemperatureF,DewpointF,PressureIn,WindDirection,WindDirectionDegrees,WindSpeedMPH,WindSpeedGustMPH,Humidity,HourlyPrecipIn,Conditions,Clouds,dailyrainin,SoftwareType,DateUTC
2013-06-19 00:01:00,63.7,60.1,29.96,South,191,0.0,0.0,88,0.00,RA,,0.00,WeatherDisplay:10.37,2013-06-19 04:01:00,
2013-06-19 00:03:00,63.7,60.1,29.96,South,191,0.0,0.0,88,0.00,RA,,0.00,WeatherDisplay:10.37,2013-06-19 04:03:00,
2013-06-19 00:05:00,63.7,60.1,29.96,South,191,0.0,0.0,88,0.00,RA,,0.00,WeatherDisplay:10.37,2013-06-19 04:05:00,
2013-06-19 00:10:00,63.6,60.0,29.96,South,191,0.0,0.0,88,0.00,RA,,0.00,WeatherDisplay:10.37,2013-06-19 04:10:00,
2013-06-19 00:15:00,63.8,60.2,29.96,South,191,0.0,0.0,88,0.00,FEW,,0.00,WeatherDisplay:10.37,2013-06-19 04:15:00,
2013-06-19 00:20:00,63.9,60.3,29.96,South,191,0.0,0.0,88,0.00,FEW,,0.00,WeatherDisplay:10.37,2013-06-19 04:20:00,
2013-06-19 00:25:00,64.0,60.4,29.96,South,191,1.1,0.0,88,0.00,FEW,,0.00,WeatherDisplay:10.37,2013-06-19 04:25:00,
2013-06-19 00:30:00,64.0,60.4,29.96,South,191,0.0,0.0,88,0.00,FEW,,0.00,WeatherDisplay:10.37,2013-06-19 04:30:00,
2013-06-19 00:35:00,64.0,60.4,29.96,South,191,0.0,0.0,88,0.00,FEW,,0.00,WeatherDisplay:10.37,2013-06-19 04:35:00,
2013-06-19 00:40:00,63.9,60.6,29.95,South,191,0.0,0.0,89,0.00,FEW,,0.00,WeatherDisplay:10.37,2013-06-19 04:40:00,
2013-06-19 00:45:00,64.1,60.8,29.96,South,191,3.0,3.0,89,0.00,FEW,,0.00,WeatherDisplay:10.37,2013-06-19 04:45:00,
2013-06-19 00:50:00,64.1,60.8,29.95,South,191,2.3,2.3,89,0.00,FEW,,0.00,WeatherDisplay:10.37,2013-06-19 04:50:00,
2013-06-19 00:55:00,64.0,60.7,29.95,South,191,0.0,0.0,89,0.00,FEW,,0.00,WeatherDisplay:10.37,2013-06-19 04:55:00,
2013-06-19 01:00:00,64.0,60.7,29.95,South,191,1.1,0.0,89,0.00,FEW,,0.00,WeatherDisplay:10.37,2013-06-19 05:00:00,
2013-06-19 01:05:00,64.1,60.8,29.96,South,191,2.3,2.3,89,0.00,OVC,,0.00,WeatherDisplay:10.37,2013-06-19 05:05:00,
2013-06-19 01:10:00,64.1,60.8,29.95,South,191,0.0,0.0,89,0.00,OVC,,0.00,WeatherDisplay:10.37,2013-06-19 05:10:00,
2013-06-19 01:15:00,64.1,60.8,29.95,South,191,0.0,0.0,89,0.00,OVC,,0.00,WeatherDisplay:10.37,2013-06-19 05:15:00,
2013-06-19 01:20:00,64.2,60.9,29.96,South,191,0.0,0.0,89,0.00,OVC,,0.00,WeatherDisplay:10.37,2013-06-19 05:20:00,
2013-06-19 01:25:00,64.1,60.8,29.96,South,191,0.0,0.0,89,0.00,OVC,,0.00,WeatherDisplay:10.37,2013-06-19 05:25:00,
2013-06-19 01:30:00,64.0,60.7,29.96,South,191,3.5,3.5,89,0.00,OVC,,0.00,WeatherDisplay:10.37,2013-06-19 05:30:00,
2013-06-19 01:35:00,63.9,60.6,29.97,South,191,1.0,1.0,89,0.00,OVC,,0.00,WeatherDisplay:10.37,2013-06-19 05:35:00,
2013-06-19 01:40:00,63.9,60.6,29.96,South,190,2.0,2.0,89,0.00,OVC,,0.00,WeatherDisplay:10.37,2013-06-19 05:40:00,
2013-06-19 01:45:00,63.9,60.6,29.96,South,191,2.3,2.3,89,0.00,OVC,,0.00,WeatherDisplay:10.37,2013-06-19 05:45:00,
2013-06-19 01:50:00,63.9,60.9,29.96,South,190,3.5,3.5,90,0.00,OVC,,0.00,WeatherDisplay:10.37,2013-06-19 05:50:00,
2013-06-19 01:55:00,63.9,60.9,29.97,South,187,3.5,3.5,90,0.00,OVC,,0.00,WeatherDisplay:10.37,2013-06-19 05:55:00,
2013-06-19 02:00:00,63.9,60.9,29.97,South,180,6.0,6.0,90,0.00,OVC,,0.00,WeatherDisplay:10.37,2013-06-19 06:00:00,
2013-06-19 02:05:00,63.9,60.9,29.97,South,176,5.0,5.0,90,0.00,OVC,,0.00,WeatherDisplay:10.37,2013-06-19 06:05:00,
2013-06-19 02:10:00,64.0,61.0,29.97,South,175,2.3,2.3,90,0.00,OVC,,0.00,WeatherDisplay:10.37,2013-06-19 06:10:00,
2013-06-19 02:15:00,63.9,60.9,29.97,South,172,6.0,6.0,90,0.00,OVC,,0.00,WeatherDisplay:10.37,2013-06-19 06:15:00,
2013-06-19 02:20:00,63.9,60.9,29.96,SSE,167,4.6,4.6,90,0.00,OVC,,0.00,WeatherDisplay:10.37,2013-06-19 06:20:00,
2013-06-19 02:25:00,63.9,60.9,29.96,SSE,166,4.0,4.0,90,0.00,OVC,,0.00,WeatherDisplay:10.37,2013-06-19 06:25:00,
2013-06-19 02:30:00,63.9,60.9,29.96,SSE,165,5.0,5.0,90,0.00,OVC,,0.00,WeatherDisplay:10.37,2013-06-19 06:30:00,
2013-06-19 02:35:00,63.8,60.8,29.96,SSE,164,5.0,5.0,90,0.00,OVC,,0.00,WeatherDisplay:10.37,2013-06-19 06:35:00,
2013-06-19 02:40:00,63.8,60.8,29.96,SSE,165,2.3,2.3,90,0.00,OVC,,0.00,WeatherDisplay:10.37,2013-06-19 06:40:00,
2013-06-19 02:45:00,63.8,60.8,29.97,SSE,164,2.0,2.0,90,0.00,OVC,,0.00,WeatherDisplay:10.37,2013-06-19 06:45:00,
2013-06-19 02:50:00,63.7,60.7,29.97,SSE,165,2.3,2.3,90,0.00,OVC,,0.00,WeatherDisplay:10.37,2013-06-19 06:50:00,
2013-06-19 02:55:00,63.6,60.6,29.97,SSE,165,1.1,0.0,90,0.00,OVC,,0.00,WeatherDisplay:10.37,2013-06-19 06:55:00,
2013-06-19 03:00:00,63.6,60.6,29.97,SSE,165,4.0,4.0,90,0.00,OVC,,0.00,WeatherDisplay:10.37,2013-06-19 07:00:00,
2013-06-19 03:05:00,63.5,60.5,29.98,SSE,165,4.0,4.0,90,0.00,OVC,,0.00,WeatherDisplay:10.37,2013-06-19 07:05:00,
2013-06-19 03:10:00,63.5,60.5,29.97,SSE,164,3.5,3.5,90,0.00,OVC,,0.00,WeatherDisplay:10.37,2013-06-19 07:10:00,
2013-06-19 03:15:00,63.5,60.5,29.97,SSE,164,4.0,4.0,90,0.00,OVC,,0.00,WeatherDisplay:10.37,2013-06-19 07:15:00,
2013-06-19 03:20:00,63.5,60.5,29.98,SSE,165,4.0,4.0,90,0.00,OVC,,0.00,WeatherDisplay:10.37,2013-06-19 07:20:00,
2013-06-19 03:25:00,63.5,60.5,29.98,SSE,165,4.0,4.0,90,0.00,OVC,,0.00,WeatherDisplay:10.37,2013-06-19 07:25:00,
2013-06-19 03:30:00,63.6,60.6,29.98,SSE,165,1.0,1.0,90,0.00,OVC,,0.00,WeatherDisplay:10.37,2013-06-19 07:30:00,
2013-06-19 03:35:00,63.6,60.6,29.98,SSE,165,0.0,0.0,90,0.00,OVC,,0.00,WeatherDisplay:10.37,2013-06-19 07:35:00,
2013-06-19 03:40:00,63.6,60.6,29.98,SSE,165,0.0,0.0,90,0.00,OVC,,0.00,WeatherDisplay:10.37,2013-06-19 07:40:00,
2013-06-19 03:45:00,63.6,60.6,29.98,SSE,165,1.1,1.1,90,0.00,OVC,,0.00,WeatherDisplay:10.37,2013-06-19 07:45:00,
2013-06-19 03:50:00,63.6,60.6,29.98,SSE,164,2.3,2.3,90,0.00,OVC,,0.00,WeatherDisplay:10.37,2013-06-19 07:50:00,
2013-06-19 03:55:00,63.7,60.7,29.98,SSE,165,1.1,0.0,90,0.00,OVC,,0.00,WeatherDisplay:10.37,2013-06-19 07:55:00,
2013-06-19 04:00:00,63.7,60.7,29.98,SSE,165,2.3,2.3,90,0.00,OVC,,0.00,WeatherDisplay:10.37,2013-06-19 08:00:00,
2013-06-19 04:05:00,63.7,60.7,29.98,SSE,165,2.3,2.3,90,0.00,CLR,,0.00,WeatherDisplay:10.37,2013-06-19 08:05:00,
2013-06-19 04:10:00,63.6,60.3,29.98,SSE,164,0.0,0.0,89,0.00,CLR,,0.00,WeatherDisplay:10.37,2013-06-19 08:10:00,
2013-06-19 04:15:00,63.6,60.3,29.98,SSE,164,2.3,2.3,89,0.00,CLR,,0.00,WeatherDisplay:10.37,2013-06-19 08:15:00,
2013-06-19 04:20:00,63.5,60.2,29.98,SSE,164,1.1,1.1,89,0.00,CLR,,0.00,WeatherDisplay:10.37,2013-06-19 08:20:00,
2013-06-19 04:25:00,63.4,60.1,29.98,SSE,164,3.5,3.5,89,0.00,CLR,,0.00,WeatherDisplay:10.37,2013-06-19 08:25:00,
2013-06-19 04:30:00,63.4,60.1,29.98,SSE,164,5.0,5.0,89,0.00,CLR,,0.00,WeatherDisplay:10.37,2013-06-19 08:30:00,
2013-06-19 04:35:00,63.4,60.1,29.98,SSE,164,2.3,2.3,89,0.00,CLR,,0.00,WeatherDisplay:10.37,2013-06-19 08:35:00,
2013-06-19 04:40:00,63.3,60.0,29.98,SSE,164,4.0,4.0,89,0.00,CLR,,0.00,WeatherDisplay:10.37,2013-06-19 08:40:00,
2013-06-19 04:45:00,63.3,60.0,29.98,SSE,163,4.0,4.0,89,0.00,CLR,,0.00,WeatherDisplay:10.37,2013-06-19 08:45:00,
2013-06-19 04:50:00,63.2,59.9,29.98,SSE,163,4.0,4.0,89,0.00,CLR,,0.00,WeatherDisplay:10.37,2013-06-19 08:50:00,
2013-06-19 04:55:00,63.2,59.9,29.98,SSE,163,4.6,4.6,89,0.00,CLR,,0.00,WeatherDisplay:10.37,2013-06-19 08:55:00,
2013-06-19 05:00:00,63.1,59.8,29.98,SSE,163,4.0,4.0,89,0.00,CLR,,0.00,WeatherDisplay:10.37,2013-06-19 09:00:00,
2013-06-19 05:05:00,63.0,59.7,29.98,SSE,163,3.5,3.5,89,0.00,OVC,,0.00,WeatherDisplay:10.37,2013-06-19 09:05:00,
2013-06-19 05:10:00,63.0,59.7,29.98,SSE,163,4.0,4.0,89,0.00,OVC,,0.00,WeatherDisplay:10.37,2013-06-19 09:10:00,
2013-06-19 05:15:00,62.9,59.6,29.98,SSE,163,4.0,4.0,89,0.00,OVC,,0.00,WeatherDisplay:10.37,2013-06-19 09:15:00,
2013-06-19 05:20:00,62.9,59.6,29.98,SSE,163,5.0,5.0,89,0.00,OVC,,0.00,WeatherDisplay:10.37,2013-06-19 09:20:00,
2013-06-19 05:25:00,62.8,59.5,29.98,SSE,163,4.0,4.0,89,0.00,OVC,,0.00,WeatherDisplay:10.37,2013-06-19 09:25:00,
2013-06-19 05:30:00,62.8,59.5,29.99,SSE,159,2.0,2.0,89,0.00,OVC,,0.00,WeatherDisplay:10.37,2013-06-19 09:30:00,
2013-06-19 05:35:00,62.7,59.4,29.99,SSE,159,4.0,4.0,89,0.00,OVC,,0.00,WeatherDisplay:10.37,2013-06-19 09:35:00,
2013-06-19 05:40:00,62.6,59.3,29.99,SSE,159,3.5,3.5,89,0.00,OVC,,0.00,WeatherDisplay:10.37,2013-06-19 09:40:00,
2013-06-19 05:45:00,62.5,59.2,29.99,SSE,159,2.3,2.3,89,0.00,OVC,,0.00,WeatherDisplay:10.37,2013-06-19 09:45:00,
2013-06-19 05:50:00,62.4,59.1,29.99,SSE,159,2.0,2.0,89,0.00,OVC,,0.00,WeatherDisplay:10.37,2013-06-19 09:50:00,
2013-06-19 05:55:00,62.3,59.0,29.99,SSE,159,2.3,2.3,89,0.00,OVC,,0.01,WeatherDisplay:10.37,2013-06-19 09:55:00,
2013-06-19 06:00:00,62.3,59.0,29.99,SSE,159,5.0,5.0,89,0.01,RA,,0.01,WeatherDisplay:10.37,2013-06-19 10:00:00,
2013-06-19 06:05:00,62.2,58.9,30.00,SSE,159,5.0,5.0,89,0.01,RA,,0.01,WeatherDisplay:10.37,2013-06-19 10:05:00,
2013-06-19 06:10:00,62.2,58.9,30.00,SSE,159,4.0,4.0,89,0.01,CLR,,0.01,WeatherDisplay:10.37,2013-06-19 10:10:00,
2013-06-19 06:15:00,62.2,58.9,30.00,SSE,159,3.5,3.5,89,0.01,CLR,,0.01,WeatherDisplay:10.37,2013-06-19 10:15:00,
2013-06-19 06:20:00,62.1,58.8,30.00,SSE,157,6.0,6.0,89,0.01,CLR,,0.01,WeatherDisplay:10.37,2013-06-19 10:20:00,
2013-06-19 06:25:00,62.1,58.8,30.01,SSE,157,2.0,2.0,89,0.01,CLR,,0.01,WeatherDisplay:10.37,2013-06-19 10:25:00,
2013-06-19 06:30:00,62.1,58.8,30.01,SSE,156,0.0,0.0,89,0.01,CLR,,0.01,WeatherDisplay:10.37,2013-06-19 10:30:00,
2013-06-19 06:35:00,62.0,58.7,30.01,SSE,156,4.0,4.0,89,0.01,CLR,,0.01,WeatherDisplay:10.37,2013-06-19 10:35:00,
2013-06-19 06:40:00,62.0,58.7,30.01,SSE,156,2.3,2.3,89,0.01,CLR,,0.01,WeatherDisplay:10.37,2013-06-19 10:40:00,
2013-06-19 06:45:00,62.0,58.7,30.01,SSE,156,1.0,1.0,89,0.01,CLR,,0.01,WeatherDisplay:10.37,2013-06-19 10:45:00,
2013-06-19 06:50:00,62.0,59.0,30.01,SSE,156,1.1,1.1,90,0.01,CLR,,0.01,WeatherDisplay:10.37,2013-06-19 10:50:00,
2013-06-19 06:55:00,62.0,59.0,30.01,SSE,156,2.3,2.3,90,0.00,CLR,,0.01,WeatherDisplay:10.37,2013-06-19 10:55:00,
2013-06-19 07:00:00,62.1,59.1,30.01,SSE,156,4.0,4.0,90,0.00,CLR,,0.01,WeatherDisplay:10.37,2013-06-19 11:00:00,
2013-06-19 07:05:00,62.1,59.1,30.02,SSE,153,6.0,6.0,90,0.00,CLR,,0.01,WeatherDisplay:10.37,2013-06-19 11:05:00,
2013-06-19 07:10:00,62.2,59.2,30.02,SSE,149,5.0,5.0,90,0.00,CLR,,0.01,WeatherDisplay:10.37,2013-06-19 11:10:00,
2013-06-19 07:15:00,62.2,59.2,30.02,SSE,148,4.0,4.0,90,0.00,CLR,,0.01,WeatherDisplay:10.37,2013-06-19 11:15:00,
2013-06-19 07:20:00,62.3,59.3,30.02,SSE,148,4.0,4.0,90,0.00,CLR,,0.01,WeatherDisplay:10.37,2013-06-19 11:20:00,
2013-06-19 07:25:00,62.5,59.5,30.02,SSE,148,2.0,2.0,90,0.00,CLR,,0.01,WeatherDisplay:10.37,2013-06-19 11:25:00,
2013-06-19 07:30:00,62.6,59.6,30.02,SSE,147,2.3,2.3,90,0.00,CLR,,0.01,WeatherDisplay:10.37,2013-06-19 11:30:00,
2013-06-19 07:35:00,62.7,59.7,30.02,SSE,147,4.0,4.0,90,0.00,CLR,,0.01,WeatherDisplay:10.37,2013-06-19 11:35:00,
2013-06-19 07:40:00,62.7,59.4,30.03,SSE,147,2.0,2.0,89,0.00,CLR,,0.01,WeatherDisplay:10.37,2013-06-19 11:40:00,
2013-06-19 07:45:00,63.0,59.7,30.03,SE,145,6.9,6.9,89,0.00,CLR,,0.01,WeatherDisplay:10.37,2013-06-19 11:45:00,
2013-06-19 07:50:00,63.1,59.8,30.03,ENE,76,7.0,7.0,89,0.00,CLR,,0.01,WeatherDisplay:10.37,2013-06-19 11:50:00,
2013-06-19 07:55:00,63.2,59.9,30.03,ENE,74,4.0,4.0,89,0.00,CLR,,0.01,WeatherDisplay:10.37,2013-06-19 11:55:00,
2013-06-19 08:00:00,63.4,59.8,30.03,ENE,68,3.5,3.5,88,0.00,CLR,,0.01,WeatherDisplay:10.37,2013-06-19 12:00:00,
2013-06-19 08:05:00,63.6,60.0,30.04,ENE,68,5.0,5.0,88,0.00,CLR,,0.01,WeatherDisplay:10.37,2013-06-19 12:05:00,
2013-06-19 08:10:00,63.9,60.3,30.04,ENE,69,2.3,2.3,88,0.00,CLR,,0.01,WeatherDisplay:10.37,2013-06-19 12:10:00,
2013-06-19 08:15:00,64.0,60.1,30.05,ENE,69,4.0,4.0,87,0.00,CLR,,0.01,WeatherDisplay:10.37,2013-06-19 12:15:00,
2013-06-19 08:20:00,64.2,59.9,30.05,ENE,70,2.3,2.3,86,0.00,CLR,,0.01,WeatherDisplay:10.37,2013-06-19 12:20:00,
2013-06-19 08:25:00,64.3,60.0,30.05,ENE,72,3.5,3.5,86,0.00,CLR,,0.01,WeatherDisplay:10.37,2013-06-19 12:25:00,
2013-06-19 08:30:00,64.5,59.9,30.05,ENE,70,5.0,5.0,85,0.00,CLR,,0.01,WeatherDisplay:10.37,2013-06-19 12:30:00,
2013-06-19 08:35:00,64.7,60.1,30.05,ENE,70,2.3,2.3,85,0.00,CLR,,0.01,WeatherDisplay:10.37,2013-06-19 12:35:00,
2013-06-19 08:41:00,64.9,60.3,30.05,ENE,70,3.0,3.0,85,0.00,CLR,,0.01,WeatherDisplay:10.37,2013-06-19 12:41:00,
2013-06-19 08:46:00,65.2,60.2,30.05,ENE,70,5.0,5.0,84,0.00,CLR,,0.01,WeatherDisplay:10.37,2013-06-19 12:46:00,
2013-06-19 08:51:00,65.5,60.5,30.06,ENE,69,1.1,1.1,84,0.00,CLR,,0.01,WeatherDisplay:10.37,2013-06-19 12:51:00,
2013-06-19 08:56:00,65.9,60.6,30.06,ENE,68,8.0,8.0,83,0.00,CLR,,0.01,WeatherDisplay:10.37,2013-06-19 12:56:00,
2013-06-19 09:01:00,66.2,60.5,30.06,ENE,65,3.5,3.5,82,0.00,CLR,,0.01,WeatherDisplay:10.37,2013-06-19 13:01:00,
2013-06-19 09:06:00,66.5,60.8,30.06,ENE,65,3.5,3.5,82,0.00,CLR,,0.01,WeatherDisplay:10.37,2013-06-19 13:06:00,
2013-06-19 09:11:00,66.8,60.8,30.06,ENE,62,3.0,3.0,81,0.00,CLR,,0.01,WeatherDisplay:10.37,2013-06-19 13:11:00,
2013-06-19 09:16:00,67.2,61.2,30.06,ENE,62,2.3,2.3,81,0.00,CLR,,0.01,WeatherDisplay:10.37,2013-06-19 13:16:00,
2013-06-19 09:21:00,67.5,61.1,30.06,ENE,62,8.1,8.1,80,0.00,CLR,,0.01,WeatherDisplay:10.37,2013-06-19 13:21:00,
2013-06-19 09:26:00,67.6,61.2,30.06,ENE,64,3.5,3.5,80,0.00,CLR,,0.01,WeatherDisplay:10.37,2013-06-19 13:26:00,
2013-06-19 09:31:00,67.7,61.0,30.07,ENE,72,6.0,6.0,79,0.00,CLR,,0.01,WeatherDisplay:10.37,2013-06-19 13:31:00,
2013-06-19 09:36:00,67.9,61.1,30.07,ENE,68,4.6,4.6,79,0.00,CLR,,0.01,WeatherDisplay:10.37,2013-06-19 13:36:00,
2013-06-19 09:41:00,68.1,61.3,30.07,ENE,69,5.0,5.0,79,0.00,CLR,,0.01,WeatherDisplay:10.37,2013-06-19 13:41:00,
2013-06-19 09:46:00,68.3,61.5,30.06,ENE,69,3.5,3.5,79,0.00,CLR,,0.01,WeatherDisplay:10.37,2013-06-19 13:46:00,
2013-06-19 09:51:00,68.8,62.0,30.06,ENE,69,1.1,1.1,79,0.00,CLR,,0.01,WeatherDisplay:10.37,2013-06-19 13:51:00,
2013-06-19 09:56:00,69.1,61.6,30.06,ENE,68,3.5,3.5,77,0.00,CLR,,0.01,WeatherDisplay:10.37,2013-06-19 13:56:00,
2013-06-19 10:01:00,69.3,61.8,30.06,ENE,69,1.1,1.1,77,0.00,CLR,,0.01,WeatherDisplay:10.37,2013-06-19 14:01:00,
2013-06-19 10:06:00,69.6,62.1,30.06,ENE,70,3.5,3.5,77,0.00,CLR,,0.01,WeatherDisplay:10.37,2013-06-19 14:06:00,
2013-06-19 10:11:00,70.0,62.1,30.06,ENE,71,3.5,3.5,76,0.00,CLR,,0.01,WeatherDisplay:10.37,2013-06-19 14:11:00,
2013-06-19 10:16:00,70.3,62.4,30.06,ENE,71,1.1,1.1,76,0.00,CLR,,0.01,WeatherDisplay:10.37,2013-06-19 14:16:00,
2013-06-19 10:21:00,70.4,62.1,30.06,ENE,71,3.5,3.5,75,0.00,CLR,,0.01,WeatherDisplay:10.37,2013-06-19 14:21:00,
2013-06-19 10:26:00,70.5,62.6,30.06,ENE,70,3.5,3.5,76,0.00,CLR,,0.01,WeatherDisplay:10.37,2013-06-19 14:26:00,
2013-06-19 10:31:00,71.0,63.1,30.06,ENE,71,3.5,3.5,76,0.00,CLR,,0.01,WeatherDisplay:10.37,2013-06-19 14:31:00,
2013-06-19 10:36:00,71.3,62.6,30.06,ENE,71,5.0,5.0,74,0.00,CLR,,0.01,WeatherDisplay:10.37,2013-06-19 14:36:00,
2013-06-19 10:41:00,71.5,62.8,30.06,ENE,71,3.5,3.5,74,0.00,CLR,,0.01,WeatherDisplay:10.37,2013-06-19 14:41:00,
2013-06-19 10:46:00,71.7,63.4,30.06,ENE,71,3.5,3.5,75,0.00,CLR,,0.01,WeatherDisplay:10.37,2013-06-19 14:46:00,
2013-06-19 10:51:00,72.3,63.2,30.06,ENE,70,0.0,0.0,73,0.00,CLR,,0.01,WeatherDisplay:10.37,2013-06-19 14:51:00,
2013-06-19 10:56:00,73.0,63.8,30.06,ENE,70,2.3,2.3,73,0.00,CLR,,0.01,WeatherDisplay:10.37,2013-06-19 14:56:00,
2013-06-19 11:01:00,73.2,63.2,30.06,ENE,70,6.0,6.0,71,0.00,CLR,,0.01,WeatherDisplay:10.37,2013-06-19 15:01:00,
2013-06-19 11:06:00,73.1,63.5,30.06,ENE,58,1.1,0.0,72,0.00,CLR,,0.01,WeatherDisplay:10.37,2013-06-19 15:06:00,
2013-06-19 11:11:00,73.7,63.7,30.06,ENE,63,3.5,3.5,71,0.00,CLR,,0.01,WeatherDisplay:10.37,2013-06-19 15:11:00,
2013-06-19 11:16:00,74.1,63.3,30.07,ENE,60,2.3,2.3,69,0.00,CLR,,0.01,WeatherDisplay:10.37,2013-06-19 15:16:00,
2013-06-19 11:21:00,74.8,64.4,30.07,ENE,60,2.3,0.0,70,0.00,CLR,,0.01,WeatherDisplay:10.37,2013-06-19 15:21:00,
2013-06-19 11:26:00,75.4,64.5,30.07,ENE,60,4.0,4.0,69,0.00,CLR,,0.01,WeatherDisplay:10.37,2013-06-19 15:26:00,
2013-06-19 11:31:00,75.2,62.6,30.07,ENE,66,2.0,2.0,65,0.00,CLR,,0.01,WeatherDisplay:10.37,2013-06-19 15:31:00,
2013-06-19 11:36:00,75.5,63.8,30.07,ENE,66,2.3,2.3,67,0.00,CLR,,0.01,WeatherDisplay:10.37,2013-06-19 15:36:00,
2013-06-19 11:41:00,75.8,62.8,30.07,ENE,68,6.0,6.0,64,0.00,CLR,,0.01,WeatherDisplay:10.37,2013-06-19 15:41:00,
2013-06-19 11:46:00,75.8,62.8,30.08,ENE,68,5.8,5.8,64,0.00,CLR,,0.01,WeatherDisplay:10.37,2013-06-19 15:46:00,
2013-06-19 11:51:00,75.6,63.0,30.08,ENE,68,4.0,4.0,65,0.00,CLR,,0.01,WeatherDisplay:10.37,2013-06-19 15:51:00,
2013-06-19 11:56:00,75.9,61.5,30.08,ENE,67,10.0,10.0,61,0.00,CLR,,0.01,WeatherDisplay:10.37,2013-06-19 15:56:00,
2013-06-19 12:01:00,76.1,61.7,30.08,ENE,70,4.6,4.6,61,0.00,CLR,,0.01,WeatherDisplay:10.37,2013-06-19 16:01:00,
2013-06-19 12:06:00,76.6,62.1,30.08,ENE,71,4.0,4.0,61,0.00,CLR,,0.01,WeatherDisplay:10.37,2013-06-19 16:06:00,
2013-06-19 12:11:00,76.7,61.3,30.08,ENE,67,7.0,7.0,59,0.00,CLR,,0.01,WeatherDisplay:10.37,2013-06-19 16:11:00,
2013-06-19 12:16:00,76.4,62.0,30.08,NE,54,6.0,6.0,61,0.00,CLR,,0.01,WeatherDisplay:10.37,2013-06-19 16:16:00,
2013-06-19 12:21:00,76.5,61.1,30.08,ENE,58,7.0,7.0,59,0.00,CLR,,0.01,WeatherDisplay:10.37,2013-06-19 16:21:00,
2013-06-19 12:26:00,77.0,62.5,30.08,East,83,5.0,5.0,61,0.00,CLR,,0.01,WeatherDisplay:10.37,2013-06-19 16:26:00,
2013-06-19 12:31:00,77.0,61.6,30.08,East,83,4.0,4.0,59,0.00,CLR,,0.01,WeatherDisplay:10.37,2013-06-19 16:31:00,
2013-06-19 12:36:00,77.5,62.0,30.08,ENE,78,3.5,3.5,59,0.00,CLR,,0.01,WeatherDisplay:10.37,2013-06-19 16:36:00,
2013-06-19 12:41:00,77.6,61.7,30.08,ENE,65,4.6,4.6,58,0.00,CLR,,0.01,WeatherDisplay:10.37,2013-06-19 16:41:00,
2013-06-19 12:46:00,77.6,61.2,30.08,ENE,72,5.0,5.0,57,0.00,CLR,,0.01,WeatherDisplay:10.37,2013-06-19 16:46:00,
2013-06-19 12:51:00,77.5,61.6,30.08,ENE,64,5.0,5.0,58,0.00,CLR,,0.01,WeatherDisplay:10.37,2013-06-19 16:51:00,
2013-06-19 12:56:00,77.8,62.3,30.08,ENE,70,3.5,3.5,59,0.00,CLR,,0.01,WeatherDisplay:10.37,2013-06-19 16:56:00,
2013-06-19 13:01:00,78.4,61.9,30.08,ENE,72,6.0,6.0,57,0.00,CLR,,0.01,WeatherDisplay:10.37,2013-06-19 17:01:00,
2013-06-19 13:06:00,78.7,62.2,30.08,ENE,68,5.0,5.0,57,0.00,CLR,,0.01,WeatherDisplay:10.37,2013-06-19 17:06:00,
2013-06-19 13:11:00,78.7,61.7,30.08,ENE,57,5.8,5.8,56,0.00,CLR,,0.01,WeatherDisplay:10.37,2013-06-19 17:11:00,
2013-06-19 13:16:00,78.3,61.8,30.08,NE,51,5.0,5.0,57,0.00,CLR,,0.01,WeatherDisplay:10.37,2013-06-19 17:16:00,
2013-06-19 13:21:00,77.8,61.3,30.07,NE,53,6.0,6.0,57,0.00,CLR,,0.01,WeatherDisplay:10.37,2013-06-19 17:21:00,
2013-06-19 13:26:00,77.4,61.5,30.07,ENE,77,10.0,10.0,58,0.00,CLR,,0.01,WeatherDisplay:10.37,2013-06-19 17:26:00,
2013-06-19 13:31:00,77.5,61.6,30.07,ENE,60,8.0,8.0,58,0.00,CLR,,0.01,WeatherDisplay:10.37,2013-06-19 17:31:00,
2013-06-19 13:36:00,77.6,61.2,30.07,ENE,64,6.0,6.0,57,0.00,CLR,,0.01,WeatherDisplay:10.37,2013-06-19 17:36:00,
2013-06-19 13:41:00,78.0,62.0,30.07,NE,39,4.0,4.0,58,0.00,CLR,,0.01,WeatherDisplay:10.37,2013-06-19 17:41:00,
2013-06-19 13:46:00,78.7,61.7,30.07,NE,46,6.9,6.9,56,0.00,CLR,,0.01,WeatherDisplay:10.37,2013-06-19 17:46:00,
2013-06-19 13:51:00,79.2,61.6,30.07,ENE,70,8.1,8.1,55,0.00,CLR,,0.01,WeatherDisplay:10.37,2013-06-19 17:51:00,
2013-06-19 13:56:00,79.6,62.0,30.07,South,190,2.3,2.3,55,0.00,CLR,,0.01,WeatherDisplay:10.37,2013-06-19 17:56:00,
2013-06-19 14:01:00,80.0,62.4,30.07,ENE,76,4.0,4.0,55,0.00,CLR,,0.01,WeatherDisplay:10.37,2013-06-19 18:01:00,
2013-06-19 14:06:00,80.4,62.2,30.07,East,85,3.5,3.5,54,0.00,CLR,,0.01,WeatherDisplay:10.37,2013-06-19 18:06:00,
2013-06-19 14:11:00,79.7,62.1,30.07,ENE,68,5.8,5.8,55,0.00,CLR,,0.01,WeatherDisplay:10.37,2013-06-19 18:11:00,
2013-06-19 14:16:00,79.5,61.9,30.07,NE,55,7.0,7.0,55,0.00,CLR,,0.01,WeatherDisplay:10.37,2013-06-19 18:16:00,
2013-06-19 14:21:00,79.3,61.7,30.06,East,87,2.3,2.3,55,0.00,CLR,,0.01,WeatherDisplay:10.37,2013-06-19 18:21:00,
2013-06-19 14:26:00,79.7,62.1,30.06,NE,47,5.0,5.0,55,0.00,CLR,,0.01,WeatherDisplay:10.37,2013-06-19 18:26:00,
2013-06-19 14:31:00,80.0,61.9,30.07,ENE,69,10.4,10.4,54,0.00,CLR,,0.01,WeatherDisplay:10.37,2013-06-19 18:31:00,
2013-06-19 14:36:00,79.5,63.4,30.06,NE,54,6.9,6.9,58,0.00,CLR,,0.01,WeatherDisplay:10.37,2013-06-19 18:36:00,
2013-06-19 14:41:00,79.9,63.3,30.06,ENE,58,2.3,2.3,57,0.00,CLR,,0.01,WeatherDisplay:10.37,2013-06-19 18:41:00,
2013-06-19 14:46:00,80.8,63.1,30.06,ENE,69,3.5,3.5,55,0.00,CLR,,0.01,WeatherDisplay:10.37,2013-06-19 18:46:00,
2013-06-19 14:51:00,80.9,62.2,30.06,NE,53,6.9,6.9,53,0.00,CLR,,0.01,WeatherDisplay:10.37,2013-06-19 18:51:00,
2013-06-19 14:56:00,80.9,63.2,30.06,ENE,60,4.0,4.0,55,0.00,CLR,,0.01,WeatherDisplay:10.37,2013-06-19 18:56:00,
2013-06-19 15:01:00,80.4,62.2,30.06,ENE,61,2.3,2.3,54,0.00,CLR,,0.01,WeatherDisplay:10.37,2013-06-19 19:01:00,
2013-06-19 15:06:00,80.5,62.3,30.06,ENE,76,5.0,5.0,54,0.00,CLR,,0.01,WeatherDisplay:10.37,2013-06-19 19:06:00,
2013-06-19 15:11:00,80.9,62.7,30.06,ENE,76,3.0,3.0,54,0.00,CLR,,0.01,WeatherDisplay:10.37,2013-06-19 19:11:00,
2013-06-19 15:16:00,80.7,62.0,30.06,NE,53,5.0,5.0,53,0.00,CLR,,0.01,WeatherDisplay:10.37,2013-06-19 19:16:00,
2013-06-19 15:21:00,81.1,61.3,30.06,ENE,66,6.0,6.0,51,0.00,CLR,,0.01,WeatherDisplay:10.37,2013-06-19 19:21:00,
2013-06-19 15:26:00,81.0,61.7,30.06,NE,47,9.2,9.2,52,0.00,CLR,,0.01,WeatherDisplay:10.37,2013-06-19 19:26:00,
2013-06-19 15:31:00,80.6,60.8,30.06,ENE,58,5.0,5.0,51,0.00,CLR,,0.01,WeatherDisplay:10.37,2013-06-19 19:31:00,
2013-06-19 15:36:00,80.9,62.2,30.06,ENE,78,4.0,4.0,53,0.00,CLR,,0.01,WeatherDisplay:10.37,2013-06-19 19:36:00,
2013-06-19 15:41:00,81.0,60.0,30.06,NE,48,5.0,5.0,49,0.00,CLR,,0.01,WeatherDisplay:10.37,2013-06-19 19:41:00,
2013-06-19 15:46:00,81.5,61.6,30.06,NE,50,6.0,6.0,51,0.00,CLR,,0.01,WeatherDisplay:10.37,2013-06-19 19:46:00,
2013-06-19 15:51:00,81.9,61.4,30.06,NE,53,2.3,2.3,50,0.00,CLR,,0.01,WeatherDisplay:10.37,2013-06-19 19:51:00,
2013-06-19 15:56:00,82.3,62.4,30.06,SE,141,6.0,6.0,51,0.00,CLR,,0.01,WeatherDisplay:10.37,2013-06-19 19:56:00,
2013-06-19 16:01:00,82.5,63.6,30.06,East,93,4.0,4.0,53,0.00,CLR,,0.01,WeatherDisplay:10.37,2013-06-19 20:01:00,
2013-06-19 16:06:00,82.2,62.3,30.06,ENE,61,5.0,5.0,51,0.00,CLR,,0.01,WeatherDisplay:10.37,2013-06-19 20:06:00,
2013-06-19 16:11:00,82.0,62.6,30.06,ENE,61,4.0,4.0,52,0.00,CLR,,0.01,WeatherDisplay:10.37,2013-06-19 20:11:00,
2013-06-19 16:16:00,82.4,63.0,30.06,ENE,66,2.3,2.3,52,0.00,CLR,,0.01,WeatherDisplay:10.37,2013-06-19 20:16:00,
2013-06-19 16:21:00,82.5,62.0,30.06,East,87,10.4,10.4,50,0.00,CLR,,0.01,WeatherDisplay:10.37,2013-06-19 20:21:00,
2013-06-19 16:26:00,81.7,62.4,30.06,NE,52,4.0,4.0,52,0.00,CLR,,0.01,WeatherDisplay:10.37,2013-06-19 20:26:00,
2013-06-19 16:31:00,81.7,61.8,30.06,ENE,64,4.0,4.0,51,0.00,CLR,,0.01,WeatherDisplay:10.37,2013-06-19 20:31:00,
2013-06-19 16:36:00,81.4,61.5,30.06,ENE,67,2.3,2.3,51,0.00,CLR,,0.01,WeatherDisplay:10.37,2013-06-19 20:36:00,
2013-06-19 16:41:00,81.0,61.2,30.06,ENE,58,4.0,4.0,51,0.00,CLR,,0.01,WeatherDisplay:10.37,2013-06-19 20:41:00,
2013-06-19 16:46:00,80.4,60.6,30.05,ENE,58,4.0,4.0,51,0.00,CLR,,0.01,WeatherDisplay:10.37,2013-06-19 20:46:00,
2013-06-19 16:51:00,80.4,61.7,30.05,NE,51,5.0,5.0,53,0.00,CLR,,0.01,WeatherDisplay:10.37,2013-06-19 20:51:00,
2013-06-19 16:56:00,81.5,62.2,30.05,East,90,2.3,2.3,52,0.00,CLR,,0.01,WeatherDisplay:10.37,2013-06-19 20:56:00,
2013-06-19 17:01:00,82.0,62.1,30.05,East,90,2.3,2.3,51,0.00,CLR,,0.01,WeatherDisplay:10.37,2013-06-19 21:01:00,
2013-06-19 17:06:00,82.1,61.6,30.05,ENE,78,6.0,6.0,50,0.00,CLR,,0.01,WeatherDisplay:10.37,2013-06-19 21:06:00,
2013-06-19 17:11:00,82.1,61.6,30.05,East,79,3.5,3.5,50,0.00,CLR,,0.01,WeatherDisplay:10.37,2013-06-19 21:11:00,
2013-06-19 17:16:00,82.3,61.2,30.05,ENE,74,4.0,4.0,49,0.00,CLR,,0.01,WeatherDisplay:10.37,2013-06-19 21:16:00,
2013-06-19 17:21:00,82.3,61.2,30.04,NE,49,8.0,8.0,49,0.00,CLR,,0.01,WeatherDisplay:10.37,2013-06-19 21:21:00,
2013-06-19 17:26:00,81.7,61.8,30.04,NE,45,1.1,1.1,51,0.00,CLR,,0.01,WeatherDisplay:10.37,2013-06-19 21:26:00,
2013-06-19 17:31:00,82.7,62.2,30.05,NE,50,7.0,7.0,50,0.00,CLR,,0.01,WeatherDisplay:10.37,2013-06-19 21:31:00,
2013-06-19 17:36:00,82.4,61.9,30.05,ENE,78,3.0,3.0,50,0.00,CLR,,0.01,WeatherDisplay:10.37,2013-06-19 21:36:00,
2013-06-19 17:41:00,82.5,62.5,30.04,ENE,77,3.5,3.5,51,0.00,CLR,,0.01,WeatherDisplay:10.37,2013-06-19 21:41:00,
2013-06-19 17:46:00,82.0,61.5,30.05,ENE,76,4.0,4.0,50,0.00,CLR,,0.01,WeatherDisplay:10.37,2013-06-19 21:46:00,
2013-06-19 17:51:00,82.0,61.5,30.05,NE,52,6.0,6.0,50,0.00,CLR,,0.01,WeatherDisplay:10.37,2013-06-19 21:51:00,
2013-06-19 17:56:00,82.2,61.7,30.04,ENE,59,5.8,5.8,50,0.00,CLR,,0.01,WeatherDisplay:10.37,2013-06-19 21:56:00,
2013-06-19 18:01:00,82.4,61.3,30.05,NE,54,5.8,5.8,49,0.00,CLR,,0.01,WeatherDisplay:10.37,2013-06-19 22:01:00,
2013-06-19 18:06:00,82.2,61.7,30.04,NE,53,1.1,1.1,50,0.00,CLR,,0.01,WeatherDisplay:10.37,2013-06-19 22:06:00,
2013-06-19 18:11:00,82.5,60.8,30.04,NE,52,4.0,4.0,48,0.00,CLR,,0.01,WeatherDisplay:10.37,2013-06-19 22:11:00,
2013-06-19 18:16:00,82.1,60.5,30.04,NE,49,6.9,6.9,48,0.00,CLR,,0.01,WeatherDisplay:10.37,2013-06-19 22:16:00,
2013-06-19 18:21:00,81.7,60.1,30.04,NE,54,2.3,2.3,48,0.00,CLR,,0.01,WeatherDisplay:10.37,2013-06-19 22:21:00,
2013-06-19 18:26:00,82.2,60.6,30.04,NE,54,3.5,3.5,48,0.00,CLR,,0.01,WeatherDisplay:10.37,2013-06-19 22:26:00,
2013-06-19 18:31:00,82.2,60.6,30.04,NE,55,4.0,4.0,48,0.00,CLR,,0.01,WeatherDisplay:10.37,2013-06-19 22:31:00,
2013-06-19 18:36:00,81.9,60.9,30.04,NE,56,2.3,2.3,49,0.00,CLR,,0.01,WeatherDisplay:10.37,2013-06-19 22:36:00,
2013-06-19 18:41:00,81.6,60.6,30.04,NE,52,6.9,6.9,49,0.00,CLR,,0.01,WeatherDisplay:10.37,2013-06-19 22:41:00,
2013-06-19 18:46:00,82.0,61.0,30.04,NE,53,1.0,1.0,49,0.00,CLR,,0.01,WeatherDisplay:10.37,2013-06-19 22:46:00,
2013-06-19 18:51:00,82.0,60.4,30.05,ENE,68,10.4,10.4,48,0.00,CLR,,0.01,WeatherDisplay:10.37,2013-06-19 22:51:00,
2013-06-19 18:56:00,81.3,60.3,30.05,ENE,73,3.5,3.5,49,0.00,CLR,,0.01,WeatherDisplay:10.37,2013-06-19 22:56:00,
2013-06-19 19:01:00,81.4,60.4,30.05,ENE,73,4.0,4.0,49,0.00,CLR,,0.01,WeatherDisplay:10.37,2013-06-19 23:01:00,
2013-06-19 19:06:00,81.7,60.1,30.05,ENE,69,3.5,3.5,48,0.00,CLR,,0.01,WeatherDisplay:10.37,2013-06-19 23:06:00,
2013-06-19 19:11:00,81.9,59.1,30.05,ENE,70,3.5,3.5,46,0.00,CLR,,0.01,WeatherDisplay:10.37,2013-06-19 23:11:00,
2013-06-19 19:16:00,81.4,58.6,30.05,ENE,64,4.6,4.6,46,0.00,CLR,,0.01,WeatherDisplay:10.37,2013-06-19 23:16:00,
2013-06-19 19:21:00,80.8,58.7,30.05,ENE,71,3.5,3.5,47,0.00,CLR,,0.01,WeatherDisplay:10.37,2013-06-19 23:21:00,
2013-06-19 19:26:00,80.5,58.4,30.05,ENE,68,3.5,3.5,47,0.00,CLR,,0.01,WeatherDisplay:10.37,2013-06-19 23:26:00,
2013-06-19 19:31:00,80.5,59.0,30.05,ENE,66,6.0,6.0,48,0.00,CLR,,0.01,WeatherDisplay:10.37,2013-06-19 23:31:00,
2013-06-19 19:36:00,80.3,59.4,30.05,ENE,66,2.3,2.3,49,0.00,CLR,,0.01,WeatherDisplay:10.37,2013-06-19 23:36:00,
2013-06-19 19:41:00,80.6,59.7,30.05,ENE,67,1.1,1.1,49,0.00,CLR,,0.01,WeatherDisplay:10.37,2013-06-19 23:41:00,
2013-06-19 19:46:00,81.0,60.0,30.06,ENE,67,2.3,2.3,49,0.00,CLR,,0.01,WeatherDisplay:10.37,2013-06-19 23:46:00,
2013-06-19 19:51:00,80.9,59.9,30.06,ENE,67,2.3,2.3,49,0.00,CLR,,0.01,WeatherDisplay:10.37,2013-06-19 23:51:00,
2013-06-19 19:56:00,80.6,59.7,30.06,ENE,67,1.1,1.1,49,0.00,CLR,,0.01,WeatherDisplay:10.37,2013-06-19 23:56:00,
2013-06-19 20:01:00,80.4,59.5,30.06,ENE,67,4.0,4.0,49,0.00,CLR,,0.01,WeatherDisplay:10.37,2013-06-20 00:01:00,
2013-06-19 20:06:00,80.0,59.7,30.05,ENE,67,4.0,4.0,50,0.00,CLR,,0.01,WeatherDisplay:10.37,2013-06-20 00:06:00,
2013-06-19 20:11:00,79.6,59.3,30.05,ENE,67,3.0,3.0,50,0.00,CLR,,0.01,WeatherDisplay:10.37,2013-06-20 00:11:00,
2013-06-19 20:16:00,79.1,58.9,30.06,ENE,67,2.3,2.3,50,0.00,CLR,,0.01,WeatherDisplay:10.37,2013-06-20 00:16:00,
2013-06-19 20:21:00,78.8,59.1,30.06,ENE,67,3.5,3.5,51,0.00,CLR,,0.01,WeatherDisplay:10.37,2013-06-20 00:21:00,
2013-06-19 20:26:00,78.7,59.0,30.05,ENE,67,1.1,1.1,51,0.00,CLR,,0.01,WeatherDisplay:10.37,2013-06-20 00:26:00,
2013-06-19 20:31:00,78.9,59.2,30.06,ENE,67,1.1,1.1,51,0.00,CLR,,0.01,WeatherDisplay:10.37,2013-06-20 00:31:00,
2013-06-19 20:36:00,78.7,59.0,30.06,ENE,67,3.0,3.0,51,0.00,CLR,,0.01,WeatherDisplay:10.37,2013-06-20 00:36:00,
2013-06-19 20:41:00,78.2,59.1,30.06,ENE,67,1.1,1.1,52,0.00,CLR,,0.01,WeatherDisplay:10.37,2013-06-20 00:41:00,
2013-06-19 20:46:00,77.9,59.4,30.06,ENE,67,4.0,4.0,53,0.00,CLR,,0.01,WeatherDisplay:10.37,2013-06-20 00:46:00,
2013-06-19 20:51:00,77.5,59.0,30.06,ENE,67,2.3,2.3,53,0.00,CLR,,0.01,WeatherDisplay:10.37,2013-06-20 00:51:00,
2013-06-19 20:56:00,77.2,59.3,30.06,ENE,67,2.3,2.3,54,0.00,CLR,,0.01,WeatherDisplay:10.37,2013-06-20 00:56:00,
2013-06-19 21:01:00,76.9,59.5,30.06,ENE,67,3.5,3.5,55,0.00,CLR,,0.01,WeatherDisplay:10.37,2013-06-20 01:01:00,
2013-06-19 21:06:00,76.5,59.1,30.06,ENE,67,2.3,2.3,55,0.00,CLR,,0.01,WeatherDisplay:10.37,2013-06-20 01:06:00,
2013-06-19 21:11:00,76.2,59.4,30.07,ENE,67,3.5,3.5,56,0.00,CLR,,0.01,WeatherDisplay:10.37,2013-06-20 01:11:00,
2013-06-19 21:16:00,76.0,59.2,30.07,ENE,67,2.3,2.3,56,0.00,CLR,,0.01,WeatherDisplay:10.37,2013-06-20 01:16:00,
2013-06-19 21:21:00,75.7,59.4,30.07,ENE,67,3.5,3.5,57,0.00,CLR,,0.01,WeatherDisplay:10.37,2013-06-20 01:21:00,
2013-06-19 21:26:00,75.4,59.1,30.07,ENE,67,3.5,3.5,57,0.00,CLR,,0.01,WeatherDisplay:10.37,2013-06-20 01:26:00,
2013-06-19 21:31:00,75.2,59.4,30.07,ENE,67,2.3,2.3,58,0.00,CLR,,0.01,WeatherDisplay:10.37,2013-06-20 01:31:00,
2013-06-19 21:36:00,75.0,59.2,30.07,ENE,67,3.0,3.0,58,0.00,CLR,,0.01,WeatherDisplay:10.37,2013-06-20 01:36:00,
2013-06-19 21:41:00,74.8,59.5,30.07,ENE,67,3.5,3.5,59,0.00,CLR,,0.01,WeatherDisplay:10.37,2013-06-20 01:41:00,
2013-06-19 21:46:00,74.6,59.3,30.07,ENE,67,2.3,2.3,59,0.00,CLR,,0.01,WeatherDisplay:10.37,2013-06-20 01:46:00,
2013-06-19 21:51:00,74.4,59.6,30.07,ENE,67,2.3,2.3,60,0.00,CLR,,0.01,WeatherDisplay:10.37,2013-06-20 01:51:00,
2013-06-19 21:56:00,74.3,59.5,30.08,ENE,67,3.0,3.0,60,0.00,CLR,,0.01,WeatherDisplay:10.37,2013-06-20 01:56:00,
2013-06-19 22:01:00,74.1,59.8,30.08,ENE,67,3.5,3.5,61,0.00,CLR,,0.01,WeatherDisplay:10.37,2013-06-20 02:01:00,
2013-06-19 22:06:00,73.9,59.6,30.08,ENE,67,2.3,2.3,61,0.00,CLR,,0.01,WeatherDisplay:10.37,2013-06-20 02:06:00,
2013-06-19 22:11:00,73.8,59.5,30.08,ENE,67,3.5,3.5,61,0.00,CLR,,0.01,WeatherDisplay:10.37,2013-06-20 02:11:00,
2013-06-19 22:16:00,73.7,59.9,30.08,ENE,67,2.3,2.3,62,0.00,CLR,,0.01,WeatherDisplay:10.37,2013-06-20 02:16:00,
2013-06-19 22:21:00,73.5,59.7,30.09,ENE,67,2.3,2.3,62,0.00,CLR,,0.01,WeatherDisplay:10.37,2013-06-20 02:21:00,
2013-06-19 22:26:00,73.3,59.5,30.09,ENE,67,1.1,1.1,62,0.00,CLR,,0.01,WeatherDisplay:10.37,2013-06-20 02:26:00,
2013-06-19 22:31:00,73.2,59.8,30.10,ENE,67,1.1,0.0,63,0.00,CLR,,0.01,WeatherDisplay:10.37,2013-06-20 02:31:00,
2013-06-19 22:36:00,73.0,59.7,30.10,ENE,67,2.0,2.0,63,0.00,CLR,,0.01,WeatherDisplay:10.37,2013-06-20 02:36:00,
2013-06-19 22:41:00,72.8,59.5,30.10,ENE,67,3.5,3.5,63,0.00,CLR,,0.01,WeatherDisplay:10.37,2013-06-20 02:41:00,
2013-06-19 22:46:00,72.6,59.7,30.10,ENE,67,2.3,2.3,64,0.00,CLR,,0.01,WeatherDisplay:10.37,2013-06-20 02:46:00,
2013-06-19 22:51:00,72.5,59.2,30.10,ENE,67,2.3,2.3,63,0.00,CLR,,0.01,WeatherDisplay:10.37,2013-06-20 02:51:00,
2013-06-19 22:56:00,72.3,59.4,30.10,ENE,67,2.3,2.3,64,0.00,CLR,,0.01,WeatherDisplay:10.37,2013-06-20 02:56:00,
2013-06-19 23:01:00,72.2,59.3,30.10,ENE,67,1.1,1.1,64,0.00,CLR,,0.01,WeatherDisplay:10.37,2013-06-20 03:01:00,
2013-06-19 23:06:00,72.0,59.2,30.10,ENE,67,1.1,0.0,64,0.00,CLR,,0.01,WeatherDisplay:10.37,2013-06-20 03:06:00,
2013-06-19 23:11:00,71.9,59.1,30.10,ENE,67,1.1,0.0,64,0.00,CLR,,0.01,WeatherDisplay:10.37,2013-06-20 03:11:00,
2013-06-19 23:16:00,71.8,59.0,30.09,ENE,67,2.3,2.3,64,0.00,CLR,,0.01,WeatherDisplay:10.37,2013-06-20 03:16:00,
2013-06-19 23:21:00,71.8,59.0,30.10,ENE,67,2.3,2.3,64,0.00,CLR,,0.01,WeatherDisplay:10.37,2013-06-20 03:21:00,
2013-06-19 23:26:00,71.7,58.9,30.09,ENE,67,2.3,2.3,64,0.00,CLR,,0.01,WeatherDisplay:10.37,2013-06-20 03:26:00,
2013-06-19 23:31:00,71.6,59.2,30.10,ENE,67,1.1,1.1,65,0.00,CLR,,0.01,WeatherDisplay:10.37,2013-06-20 03:31:00,
2013-06-19 23:36:00,71.5,59.1,30.10,ENE,67,0.0,0.0,65,0.00,CLR,,0.01,WeatherDisplay:10.37,2013-06-20 03:36:00,
2013-06-19 23:41:00,71.4,59.0,30.10,ENE,67,1.1,1.1,65,0.00,CLR,,0.01,WeatherDisplay:10.37,2013-06-20 03:41:00,
2013-06-19 23:46:00,71.3,58.9,30.10,ENE,67,3.5,3.5,65,0.00,CLR,,0.01,WeatherDisplay:10.37,2013-06-20 03:46:00,
2013-06-19 23:51:00,71.1,58.7,30.10,ENE,67,2.0,2.0,65,0.00,CLR,,0.01,WeatherDisplay:10.37,2013-06-20 03:51:00,
2013-06-19 23:56:00,71.0,58.6,30.10,ENE,67,3.5,3.5,65,0.00,CLR,,0.01,WeatherDisplay:10.37,2013-06-20 03:56:00,